LUKK/KIV METAR and TAF weather

Enter ICAO airport designator
Station Type Date Time Source
LUKK METAR 2021/03/01 22:30 UTC NOAA

LUKK 012230Z 34005KT 9999 OVC030 02/M00 Q1033 R08/110095 NOSIG


Station Type Date Time Source
LUKK Decoded METAR 2021/03/01 22:30 UTC NOAA

Chisinau International Airport, Moldova (LUKK) 46-55-40N 028-55-51E
Mar 01, 2021 - 05:30 PM EST / 2021.03.01 2230 UTC
Wind: from the NNW (340 degrees) at 6 MPH (5 KT):0
Visibility: greater than 7 mile(s):0
Sky conditions: overcast
Temperature: 35 F (2 C)
Windchill: 30 F (-1 C):1
Dew Point: 32 F (0 C)
Relative Humidity: 86%
Pressure (altimeter): 30.50 in. Hg (1033 hPa)
ob: LUKK 012230Z 34005KT 9999 OVC030 02/M00 Q1033 R08/110095 NOSIG
cycle: 22

Station Type Date Time Source
LUKK TAF 2021/03/01 18:19 UTC NOAA

TAF LUKK 011720Z 0118/0218 01012KT 9999 BKN020
BECMG 0119/0121 32008KT
TEMPO 0121/0207 BKN012
BECMG 0209/0211 29012KT
TEMPO 0214/0218 33016G26KT

Example: see airport list